sensor_id;sensor_type;location;lat;lon;timestamp;temperature;humidity
16273;DHT22;8244;50.044;9.006;2024-02-21T00:02:16;7.80;99.90
16273;DHT22;8244;50.044;9.006;2024-02-21T00:07:19;7.90;99.90
16273;DHT22;8244;50.044;9.006;2024-02-21T00:12:21;7.90;99.90
16273;DHT22;8244;50.044;9.006;2024-02-21T00:17:23;8.00;99.90
16273;DHT22;8244;50.044;9.006;2024-02-21T00:22:28;8.00;99.90
16273;DHT22;8244;50.044;9.006;2024-02-21T00:27:31;8.00;99.90
16273;DHT22;8244;50.044;9.006;2024-02-21T00:32:33;8.10;99.90
16273;DHT22;8244;50.044;9.006;2024-02-21T00:37:36;8.00;99.90
16273;DHT22;8244;50.044;9.006;2024-02-21T00:42:38;8.00;99.90
16273;DHT22;8244;50.044;9.006;2024-02-21T00:47:39;8.00;99.90
16273;DHT22;8244;50.044;9.006;2024-02-21T00:52:42;8.00;99.90
16273;DHT22;8244;50.044;9.006;2024-02-21T00:57:44;7.90;99.90
16273;DHT22;8244;50.044;9.006;2024-02-21T01:02:46;7.90;99.90
16273;DHT22;8244;50.044;9.006;2024-02-21T01:07:49;7.90;99.90
16273;DHT22;8244;50.044;9.006;2024-02-21T01:12:51;7.80;99.90
16273;DHT22;8244;50.044;9.006;2024-02-21T01:17:52;7.80;99.90
16273;DHT22;8244;50.044;9.006;2024-02-21T01:22:56;7.80;99.90
16273;DHT22;8244;50.044;9.006;2024-02-21T01:27:58;7.70;99.90
16273;DHT22;8244;50.044;9.006;2024-02-21T01:32:59;7.70;99.90
16273;DHT22;8244;50.044;9.006;2024-02-21T01:38:02;7.70;99.90
16273;DHT22;8244;50.044;9.006;2024-02-21T01:43:15;7.70;99.90
16273;DHT22;8244;50.044;9.006;2024-02-21T01:48:18;7.70;99.90
16273;DHT22;8244;50.044;9.006;2024-02-21T01:53:22;7.60;99.90
16273;DHT22;8244;50.044;9.006;2024-02-21T01:58:25;7.60;99.90
16273;DHT22;8244;50.044;9.006;2024-02-21T02:03:26;7.60;99.90
16273;DHT22;8244;50.044;9.006;2024-02-21T02:08:31;7.60;99.90
16273;DHT22;8244;50.044;9.006;2024-02-21T02:13:33;7.50;99.90
16273;DHT22;8244;50.044;9.006;2024-02-21T02:18:35;7.50;99.90
16273;DHT22;8244;50.044;9.006;2024-02-21T02:23:38;7.50;99.90
16273;DHT22;8244;50.044;9.006;2024-02-21T02:28:40;7.40;99.90
16273;DHT22;8244;50.044;9.006;2024-02-21T02:33:42;7.30;99.90
16273;DHT22;8244;50.044;9.006;2024-02-21T02:38:45;7.30;99.90
16273;DHT22;8244;50.044;9.006;2024-02-21T02:43:47;7.20;99.90
16273;DHT22;8244;50.044;9.006;2024-02-21T02:48:49;7.20;99.90
16273;DHT22;8244;50.044;9.006;2024-02-21T02:53:52;7.20;99.90
16273;DHT22;8244;50.044;9.006;2024-02-21T02:58:53;7.10;99.90
16273;DHT22;8244;50.044;9.006;2024-02-21T03:03:55;7.10;99.90
16273;DHT22;8244;50.044;9.006;2024-02-21T03:08:58;7.00;99.90
16273;DHT22;8244;50.044;9.006;2024-02-21T03:14:02;6.90;99.90
16273;DHT22;8244;50.044;9.006;2024-02-21T03:19:04;6.90;99.90
16273;DHT22;8244;50.044;9.006;2024-02-21T03:24:07;6.80;99.90
16273;DHT22;8244;50.044;9.006;2024-02-21T03:29:09;6.70;99.90
16273;DHT22;8244;50.044;9.006;2024-02-21T03:34:11;6.60;99.90
16273;DHT22;8244;50.044;9.006;2024-02-21T03:39:14;6.60;99.90
16273;DHT22;8244;50.044;9.006;2024-02-21T03:44:16;6.60;99.90
16273;DHT22;8244;50.044;9.006;2024-02-21T03:49:18;6.60;99.90
16273;DHT22;8244;50.044;9.006;2024-02-21T03:54:21;6.50;99.90
16273;DHT22;8244;50.044;9.006;2024-02-21T03:59:23;6.50;99.90
16273;DHT22;8244;50.044;9.006;2024-02-21T04:04:24;6.60;99.90
16273;DHT22;8244;50.044;9.006;2024-02-21T04:09:27;6.60;99.90
16273;DHT22;8244;50.044;9.006;2024-02-21T04:14:29;6.60;99.90
16273;DHT22;8244;50.044;9.006;2024-02-21T04:19:30;6.60;99.90
16273;DHT22;8244;50.044;9.006;2024-02-21T04:24:33;6.70;99.90
16273;DHT22;8244;50.044;9.006;2024-02-21T04:29:35;6.70;99.90
16273;DHT22;8244;50.044;9.006;2024-02-21T04:34:36;6.70;99.90
16273;DHT22;8244;50.044;9.006;2024-02-21T04:39:40;6.80;99.90
16273;DHT22;8244;50.044;9.006;2024-02-21T04:44:42;6.80;99.90
16273;DHT22;8244;50.044;9.006;2024-02-21T04:49:43;6.70;99.90
16273;DHT22;8244;50.044;9.006;2024-02-21T04:54:47;6.70;99.90
16273;DHT22;8244;50.044;9.006;2024-02-21T04:59:49;6.60;99.90
16273;DHT22;8244;50.044;9.006;2024-02-21T05:04:51;6.50;99.90
16273;DHT22;8244;50.044;9.006;2024-02-21T05:09:55;6.40;99.90
16273;DHT22;8244;50.044;9.006;2024-02-21T05:14:56;6.30;99.90
16273;DHT22;8244;50.044;9.006;2024-02-21T05:19:58;6.20;99.90
16273;DHT22;8244;50.044;9.006;2024-02-21T05:25:01;6.10;99.90
16273;DHT22;8244;50.044;9.006;2024-02-21T05:30:04;6.00;99.90
16273;DHT22;8244;50.044;9.006;2024-02-21T05:35:08;5.90;99.90
16273;DHT22;8244;50.044;9.006;2024-02-21T05:40:12;5.80;99.90
16273;DHT22;8244;50.044;9.006;2024-02-21T05:45:14;5.70;99.90
16273;DHT22;8244;50.044;9.006;2024-02-21T05:50:16;5.70;99.90
16273;DHT22;8244;50.044;9.006;2024-02-21T05:55:19;5.70;99.90
16273;DHT22;8244;50.044;9.006;2024-02-21T06:00:21;5.70;99.90
16273;DHT22;8244;50.044;9.006;2024-02-21T06:05:22;5.70;99.90
16273;DHT22;8244;50.044;9.006;2024-02-21T06:10:25;5.80;99.90
16273;DHT22;8244;50.044;9.006;2024-02-21T06:15:27;5.80;99.90
16273;DHT22;8244;50.044;9.006;2024-02-21T06:20:29;5.80;99.90
16273;DHT22;8244;50.044;9.006;2024-02-21T06:25:32;5.90;99.90
16273;DHT22;8244;50.044;9.006;2024-02-21T06:30:33;5.90;99.90
16273;DHT22;8244;50.044;9.006;2024-02-21T06:35:35;5.90;99.90
16273;DHT22;8244;50.044;9.006;2024-02-21T06:40:39;6.00;99.90
16273;DHT22;8244;50.044;9.006;2024-02-21T06:45:41;6.00;99.90
16273;DHT22;8244;50.044;9.006;2024-02-21T06:50:42;6.00;99.90
16273;DHT22;8244;50.044;9.006;2024-02-21T06:55:45;6.00;99.90
16273;DHT22;8244;50.044;9.006;2024-02-21T07:00:47;6.10;99.90
16273;DHT22;8244;50.044;9.006;2024-02-21T07:05:49;6.10;99.90
16273;DHT22;8244;50.044;9.006;2024-02-21T07:10:52;6.10;99.90
16273;DHT22;8244;50.044;9.006;2024-02-21T07:15:53;6.10;99.90
16273;DHT22;8244;50.044;9.006;2024-02-21T07:20:55;6.20;99.90
16273;DHT22;8244;50.044;9.006;2024-02-21T07:25:58;6.30;99.90
16273;DHT22;8244;50.044;9.006;2024-02-21T07:31:00;6.30;99.90
16273;DHT22;8244;50.044;9.006;2024-02-21T07:36:06;6.50;99.90
16273;DHT22;8244;50.044;9.006;2024-02-21T07:41:09;6.60;99.90
16273;DHT22;8244;50.044;9.006;2024-02-21T07:46:10;6.70;99.90
16273;DHT22;8244;50.044;9.006;2024-02-21T07:51:12;6.90;99.90
16273;DHT22;8244;50.044;9.006;2024-02-21T07:56:15;7.00;99.90
16273;DHT22;8244;50.044;9.006;2024-02-21T08:01:18;7.40;99.90
16273;DHT22;8244;50.044;9.006;2024-02-21T08:06:20;7.70;99.90
16273;DHT22;8244;50.044;9.006;2024-02-21T08:11:23;8.10;99.90
16273;DHT22;8244;50.044;9.006;2024-02-21T08:16:26;8.60;99.90
16273;DHT22;8244;50.044;9.006;2024-02-21T08:21:28;8.90;99.90
16273;DHT22;8244;50.044;9.006;2024-02-21T08:26:31;9.30;99.90
16273;DHT22;8244;50.044;9.006;2024-02-21T08:31:33;9.60;99.90
16273;DHT22;8244;50.044;9.006;2024-02-21T08:36:35;9.90;99.90
16273;DHT22;8244;50.044;9.006;2024-02-21T08:41:38;10.00;99.90
16273;DHT22;8244;50.044;9.006;2024-02-21T08:46:40;10.20;99.90
16273;DHT22;8244;50.044;9.006;2024-02-21T08:51:41;10.20;99.90
16273;DHT22;8244;50.044;9.006;2024-02-21T08:56:45;10.10;99.90
16273;DHT22;8244;50.044;9.006;2024-02-21T09:01:46;10.00;99.90
16273;DHT22;8244;50.044;9.006;2024-02-21T09:06:48;10.10;99.90
16273;DHT22;8244;50.044;9.006;2024-02-21T09:11:51;10.20;99.90
16273;DHT22;8244;50.044;9.006;2024-02-21T09:16:53;10.20;99.90
16273;DHT22;8244;50.044;9.006;2024-02-21T09:21:56;10.20;99.90
16273;DHT22;8244;50.044;9.006;2024-02-21T09:26:59;10.30;99.90
16273;DHT22;8244;50.044;9.006;2024-02-21T09:32:01;10.30;99.90
16273;DHT22;8244;50.044;9.006;2024-02-21T09:37:03;10.40;99.90
16273;DHT22;8244;50.044;9.006;2024-02-21T09:42:07;10.50;99.90
16273;DHT22;8244;50.044;9.006;2024-02-21T09:47:16;10.60;99.90
16273;DHT22;8244;50.044;9.006;2024-02-21T09:52:19;10.90;99.90
16273;DHT22;8244;50.044;9.006;2024-02-21T09:57:23;10.80;99.90
16273;DHT22;8244;50.044;9.006;2024-02-21T10:02:25;10.60;99.90
16273;DHT22;8244;50.044;9.006;2024-02-21T10:07:27;10.70;99.90
16273;DHT22;8244;50.044;9.006;2024-02-21T10:12:30;10.90;99.90
16273;DHT22;8244;50.044;9.006;2024-02-21T10:17:32;11.20;99.90
16273;DHT22;8244;50.044;9.006;2024-02-21T10:22:34;11.40;99.90
16273;DHT22;8244;50.044;9.006;2024-02-21T10:27:39;11.60;99.90
16273;DHT22;8244;50.044;9.006;2024-02-21T10:32:49;11.70;99.90
16273;DHT22;8244;50.044;9.006;2024-02-21T10:37:51;11.70;99.90
16273;DHT22;8244;50.044;9.006;2024-02-21T10:42:59;11.70;99.90
16273;DHT22;8244;50.044;9.006;2024-02-21T10:48:08;11.90;99.90
16273;DHT22;8244;50.044;9.006;2024-02-21T10:53:20;12.30;99.90
16273;DHT22;8244;50.044;9.006;2024-02-21T10:58:27;12.70;99.90
16273;DHT22;8244;50.044;9.006;2024-02-21T11:03:31;12.80;99.90
16273;DHT22;8244;50.044;9.006;2024-02-21T11:08:33;12.60;99.90
16273;DHT22;8244;50.044;9.006;2024-02-21T11:13:36;12.70;99.90
16273;DHT22;8244;50.044;9.006;2024-02-21T11:18:38;12.70;99.90
16273;DHT22;8244;50.044;9.006;2024-02-21T11:23:40;12.90;99.90
16273;DHT22;8244;50.044;9.006;2024-02-21T11:28:43;13.20;99.90
16273;DHT22;8244;50.044;9.006;2024-02-21T11:33:47;13.20;99.90
16273;DHT22;8244;50.044;9.006;2024-02-21T11:38:49;13.00;99.90
16273;DHT22;8244;50.044;9.006;2024-02-21T11:43:52;13.20;99.90
16273;DHT22;8244;50.044;9.006;2024-02-21T11:48:54;13.10;99.90
16273;DHT22;8244;50.044;9.006;2024-02-21T11:53:56;13.30;99.90
16273;DHT22;8244;50.044;9.006;2024-02-21T11:59:00;13.40;99.90
16273;DHT22;8244;50.044;9.006;2024-02-21T12:04:02;13.70;99.90
16273;DHT22;8244;50.044;9.006;2024-02-21T12:09:04;13.70;99.90
16273;DHT22;8244;50.044;9.006;2024-02-21T12:14:07;13.60;99.90
16273;DHT22;8244;50.044;9.006;2024-02-21T12:19:09;13.50;99.90
16273;DHT22;8244;50.044;9.006;2024-02-21T12:24:14;13.60;99.90
16273;DHT22;8244;50.044;9.006;2024-02-21T12:29:17;13.50;99.90
16273;DHT22;8244;50.044;9.006;2024-02-21T12:34:18;13.40;99.90
16273;DHT22;8244;50.044;9.006;2024-02-21T12:39:20;13.40;99.90
16273;DHT22;8244;50.044;9.006;2024-02-21T12:44:23;13.60;99.90
16273;DHT22;8244;50.044;9.006;2024-02-21T12:49:25;13.70;99.90
16273;DHT22;8244;50.044;9.006;2024-02-21T12:54:29;13.80;99.90
16273;DHT22;8244;50.044;9.006;2024-02-21T12:59:32;13.90;99.90
16273;DHT22;8244;50.044;9.006;2024-02-21T13:04:34;13.80;99.90
16273;DHT22;8244;50.044;9.006;2024-02-21T13:09:36;13.80;99.90
16273;DHT22;8244;50.044;9.006;2024-02-21T13:14:39;13.90;99.90
16273;DHT22;8244;50.044;9.006;2024-02-21T13:19:43;13.90;99.90
16273;DHT22;8244;50.044;9.006;2024-02-21T13:24:45;13.80;99.90
16273;DHT22;8244;50.044;9.006;2024-02-21T13:29:48;13.80;99.90
16273;DHT22;8244;50.044;9.006;2024-02-21T13:34:50;13.80;99.90
16273;DHT22;8244;50.044;9.006;2024-02-21T13:39:52;13.50;99.90
16273;DHT22;8244;50.044;9.006;2024-02-21T13:44:56;13.50;99.90
16273;DHT22;8244;50.044;9.006;2024-02-21T13:49:57;13.40;99.90
16273;DHT22;8244;50.044;9.006;2024-02-21T13:54:59;13.40;99.90
16273;DHT22;8244;50.044;9.006;2024-02-21T14:00:02;13.30;99.90
16273;DHT22;8244;50.044;9.006;2024-02-21T14:05:05;13.10;99.90
16273;DHT22;8244;50.044;9.006;2024-02-21T14:10:08;13.20;99.90
16273;DHT22;8244;50.044;9.006;2024-02-21T14:15:12;13.10;99.90
16273;DHT22;8244;50.044;9.006;2024-02-21T14:20:13;13.20;99.90
16273;DHT22;8244;50.044;9.006;2024-02-21T14:25:15;13.40;99.90
16273;DHT22;8244;50.044;9.006;2024-02-21T14:30:18;13.50;99.90
16273;DHT22;8244;50.044;9.006;2024-02-21T14:35:20;13.50;99.90
16273;DHT22;8244;50.044;9.006;2024-02-21T14:40:22;13.40;99.90
16273;DHT22;8244;50.044;9.006;2024-02-21T14:45:25;13.40;99.90
16273;DHT22;8244;50.044;9.006;2024-02-21T14:50:27;13.30;99.90
16273;DHT22;8244;50.044;9.006;2024-02-21T14:55:28;13.20;99.90
16273;DHT22;8244;50.044;9.006;2024-02-21T15:00:31;13.10;99.90
16273;DHT22;8244;50.044;9.006;2024-02-21T15:05:34;13.00;99.90
16273;DHT22;8244;50.044;9.006;2024-02-21T15:10:36;13.10;99.90
16273;DHT22;8244;50.044;9.006;2024-02-21T15:15:39;13.00;99.90
16273;DHT22;8244;50.044;9.006;2024-02-21T15:20:40;12.90;99.90
16273;DHT22;8244;50.044;9.006;2024-02-21T15:25:42;12.70;99.90
16273;DHT22;8244;50.044;9.006;2024-02-21T15:30:45;12.60;99.90
16273;DHT22;8244;50.044;9.006;2024-02-21T15:35:47;12.50;99.90
16273;DHT22;8244;50.044;9.006;2024-02-21T15:40:49;12.40;99.90
16273;DHT22;8244;50.044;9.006;2024-02-21T15:45:52;12.30;99.90
16273;DHT22;8244;50.044;9.006;2024-02-21T15:50:54;12.30;99.90
16273;DHT22;8244;50.044;9.006;2024-02-21T15:55:55;12.20;99.90
16273;DHT22;8244;50.044;9.006;2024-02-21T16:00:58;12.10;99.90
16273;DHT22;8244;50.044;9.006;2024-02-21T16:06:00;12.10;99.90
16273;DHT22;8244;50.044;9.006;2024-02-21T16:11:02;12.00;99.90
16273;DHT22;8244;50.044;9.006;2024-02-21T16:16:06;11.90;99.90
16273;DHT22;8244;50.044;9.006;2024-02-21T16:21:07;11.80;99.90
16273;DHT22;8244;50.044;9.006;2024-02-21T16:26:09;11.70;99.90
16273;DHT22;8244;50.044;9.006;2024-02-21T16:31:13;11.60;99.90
16273;DHT22;8244;50.044;9.006;2024-02-21T16:36:21;11.40;99.90
16273;DHT22;8244;50.044;9.006;2024-02-21T16:41:23;11.30;99.90
16273;DHT22;8244;50.044;9.006;2024-02-21T16:46:26;11.30;99.90
16273;DHT22;8244;50.044;9.006;2024-02-21T16:51:28;11.20;99.90
16273;DHT22;8244;50.044;9.006;2024-02-21T16:56:29;11.00;99.90
16273;DHT22;8244;50.044;9.006;2024-02-21T17:01:35;10.90;99.90
16273;DHT22;8244;50.044;9.006;2024-02-21T17:06:39;10.80;99.90
16273;DHT22;8244;50.044;9.006;2024-02-21T17:11:41;10.60;99.90
16273;DHT22;8244;50.044;9.006;2024-02-21T17:16:44;10.50;99.90
16273;DHT22;8244;50.044;9.006;2024-02-21T17:21:45;10.40;99.90
16273;DHT22;8244;50.044;9.006;2024-02-21T17:26:47;10.40;99.90
16273;DHT22;8244;50.044;9.006;2024-02-21T17:31:50;10.20;99.90
16273;DHT22;8244;50.044;9.006;2024-02-21T17:36:52;10.20;99.90
16273;DHT22;8244;50.044;9.006;2024-02-21T17:41:54;10.10;99.90
16273;DHT22;8244;50.044;9.006;2024-02-21T17:46:58;10.00;99.90
16273;DHT22;8244;50.044;9.006;2024-02-21T17:52:00;10.00;99.90
16273;DHT22;8244;50.044;9.006;2024-02-21T17:57:01;9.90;99.90
16273;DHT22;8244;50.044;9.006;2024-02-21T18:02:05;9.90;99.90
16273;DHT22;8244;50.044;9.006;2024-02-21T18:07:07;9.80;99.90
16273;DHT22;8244;50.044;9.006;2024-02-21T18:12:09;9.80;99.90
16273;DHT22;8244;50.044;9.006;2024-02-21T18:17:12;9.70;99.90
16273;DHT22;8244;50.044;9.006;2024-02-21T18:22:14;9.70;99.90
16273;DHT22;8244;50.044;9.006;2024-02-21T18:27:16;9.70;99.90
16273;DHT22;8244;50.044;9.006;2024-02-21T18:32:19;9.60;99.90
16273;DHT22;8244;50.044;9.006;2024-02-21T18:37:22;9.60;99.90
16273;DHT22;8244;50.044;9.006;2024-02-21T18:42:24;9.50;99.90
16273;DHT22;8244;50.044;9.006;2024-02-21T18:47:27;9.50;99.90
16273;DHT22;8244;50.044;9.006;2024-02-21T18:52:28;9.40;99.90
16273;DHT22;8244;50.044;9.006;2024-02-21T18:57:30;9.40;99.90
16273;DHT22;8244;50.044;9.006;2024-02-21T19:02:35;9.40;99.90
16273;DHT22;8244;50.044;9.006;2024-02-21T19:07:36;9.40;99.90
16273;DHT22;8244;50.044;9.006;2024-02-21T19:12:38;9.30;99.90
16273;DHT22;8244;50.044;9.006;2024-02-21T19:17:41;9.30;99.90
16273;DHT22;8244;50.044;9.006;2024-02-21T19:22:43;9.30;99.90
16273;DHT22;8244;50.044;9.006;2024-02-21T19:27:47;9.30;99.90
16273;DHT22;8244;50.044;9.006;2024-02-21T19:32:50;9.30;99.90
16273;DHT22;8244;50.044;9.006;2024-02-21T19:37:52;9.30;99.90
16273;DHT22;8244;50.044;9.006;2024-02-21T19:42:55;9.30;99.90
16273;DHT22;8244;50.044;9.006;2024-02-21T19:47:58;9.30;99.90
16273;DHT22;8244;50.044;9.006;2024-02-21T19:53:00;9.30;99.90
16273;DHT22;8244;50.044;9.006;2024-02-21T19:58:02;9.30;99.90
16273;DHT22;8244;50.044;9.006;2024-02-21T20:03:07;9.30;99.90
16273;DHT22;8244;50.044;9.006;2024-02-21T20:08:08;9.30;99.90
16273;DHT22;8244;50.044;9.006;2024-02-21T20:13:11;9.30;99.90
16273;DHT22;8244;50.044;9.006;2024-02-21T20:18:15;9.30;99.90
16273;DHT22;8244;50.044;9.006;2024-02-21T20:23:19;9.30;99.90
16273;DHT22;8244;50.044;9.006;2024-02-21T20:28:20;9.30;99.90
16273;DHT22;8244;50.044;9.006;2024-02-21T20:33:24;9.20;99.90
16273;DHT22;8244;50.044;9.006;2024-02-21T20:38:25;9.10;99.90
16273;DHT22;8244;50.044;9.006;2024-02-21T20:43:27;9.10;99.90
16273;DHT22;8244;50.044;9.006;2024-02-21T20:48:30;9.10;99.90
16273;DHT22;8244;50.044;9.006;2024-02-21T20:53:32;9.10;99.90
16273;DHT22;8244;50.044;9.006;2024-02-21T20:58:34;9.00;99.90
16273;DHT22;8244;50.044;9.006;2024-02-21T21:03:37;9.00;99.90
16273;DHT22;8244;50.044;9.006;2024-02-21T21:08:39;9.00;99.90
16273;DHT22;8244;50.044;9.006;2024-02-21T21:13:41;8.90;99.90
16273;DHT22;8244;50.044;9.006;2024-02-21T21:18:44;8.80;99.90
16273;DHT22;8244;50.044;9.006;2024-02-21T21:23:45;8.80;99.90
16273;DHT22;8244;50.044;9.006;2024-02-21T21:28:47;8.80;99.90
16273;DHT22;8244;50.044;9.006;2024-02-21T21:33:50;8.70;99.90
16273;DHT22;8244;50.044;9.006;2024-02-21T21:38:52;8.70;99.90
16273;DHT22;8244;50.044;9.006;2024-02-21T21:43:54;8.70;99.90
16273;DHT22;8244;50.044;9.006;2024-02-21T21:48:57;8.60;99.90
16273;DHT22;8244;50.044;9.006;2024-02-21T21:53:58;8.60;99.90
16273;DHT22;8244;50.044;9.006;2024-02-21T21:59:00;8.60;99.90
16273;DHT22;8244;50.044;9.006;2024-02-21T22:04:05;8.60;99.90
16273;DHT22;8244;50.044;9.006;2024-02-21T22:09:06;8.50;99.90
16273;DHT22;8244;50.044;9.006;2024-02-21T22:14:09;8.50;99.90
16273;DHT22;8244;50.044;9.006;2024-02-21T22:19:12;8.40;99.90
16273;DHT22;8244;50.044;9.006;2024-02-21T22:24:14;8.40;99.90
16273;DHT22;8244;50.044;9.006;2024-02-21T22:29:16;8.40;99.90
16273;DHT22;8244;50.044;9.006;2024-02-21T22:34:19;8.40;99.90
16273;DHT22;8244;50.044;9.006;2024-02-21T22:39:21;8.40;99.90
16273;DHT22;8244;50.044;9.006;2024-02-21T22:44:24;8.40;99.90
16273;DHT22;8244;50.044;9.006;2024-02-21T22:49:27;8.30;99.90
16273;DHT22;8244;50.044;9.006;2024-02-21T22:54:29;8.30;99.90
16273;DHT22;8244;50.044;9.006;2024-02-21T22:59:32;8.30;99.90
16273;DHT22;8244;50.044;9.006;2024-02-21T23:04:35;8.30;99.90
16273;DHT22;8244;50.044;9.006;2024-02-21T23:09:36;8.30;99.90
16273;DHT22;8244;50.044;9.006;2024-02-21T23:14:38;8.40;99.90
16273;DHT22;8244;50.044;9.006;2024-02-21T23:19:41;8.40;99.90
16273;DHT22;8244;50.044;9.006;2024-02-21T23:24:43;8.40;99.90
16273;DHT22;8244;50.044;9.006;2024-02-21T23:29:44;8.40;99.90
16273;DHT22;8244;50.044;9.006;2024-02-21T23:34:47;8.40;99.90
16273;DHT22;8244;50.044;9.006;2024-02-21T23:39:49;8.40;99.90
16273;DHT22;8244;50.044;9.006;2024-02-21T23:44:51;8.40;99.90
16273;DHT22;8244;50.044;9.006;2024-02-21T23:49:57;8.40;99.90
16273;DHT22;8244;50.044;9.006;2024-02-21T23:54:58;8.40;99.90
